This is the latest recevied weather packets stored in our database for station/object WB8SKP-WX. If no packets are shown the sender has not sent any weather packets the latest 10 day(s).
| Time | Temp. | Humidity | Pressure | Rain* | Wind** | Luminosity | Snow |
|---|---|---|---|---|---|---|---|
| 1777509697 | 16.67° C | 68% | 995.2 hPa | 0 mm | - | - | - |
| 1777508497 | 17.22° C | 67% | 995 hPa | 0 mm | - | - | - |
| 1777507266 | 17.78° C | 66% | 994.9 hPa | 0 mm | - | - | - |
| 1777506037 | 18.89° C | 65% | 994.8 hPa | 0 mm | - | - | - |
| 1777504837 | 19.44° C | 63% | 994.4 hPa | 0 mm | - | - | - |
| 1777503606 | 18.89° C | 65% | 994.7 hPa | 0 mm | - | - | - |
| 1777502406 | 19.44° C | 63% | 994.3 hPa | 0 mm | - | - | - |
| 1777501206 | 20° C | 62% | 994.3 hPa | 0 mm | - | - | - |
| 1777499976 | 18.89° C | 67% | 994.7 hPa | 0 mm | - | - | - |
| 1777498776 | 19.44° C | 67% | 994.4 hPa | 0 mm | - | - | - |
| 1777497576 | 20° C | 64% | 994.4 hPa | 0 mm | - | - | - |
| 1777496376 | 20.56° C | 66% | 994.5 hPa | 0 mm | - | - | - |
| 1777495176 | 20° C | 70% | 994.7 hPa | 0 mm | - | - | - |
| 1777493946 | 19.44° C | 72% | 994.9 hPa | 0 mm | - | - | - |
| 1777492746 | 20° C | 69% | 994.9 hPa | 0 mm | - | - | - |
| 1777491546 | 19.44° C | 70% | 995.1 hPa | 0 mm | - | - | - |
| 1777490316 | 18.89° C | 74% | 995.5 hPa | 0 mm | - | - | - |
| 1777489116 | 18.33° C | 75% | 995.8 hPa | 0 mm | - | - | - |
| 1777487916 | 18.33° C | 77% | 995.8 hPa | 0 mm | - | - | - |
| 1777486716 | 17.78° C | 78% | 995.9 hPa | 0 mm | - | - | - |
| 1777485516 | 17.78° C | 79% | 995.7 hPa | 0 mm | - | - | - |
| 1777484316 | 17.22° C | 83% | 996.2 hPa | 0 mm | - | - | - |
| 1777483086 | 16.67° C | 86% | 995.9 hPa | 0 mm | - | - | - |
| 1777481886 | 15.56° C | 90% | 996.3 hPa | 0 mm | - | - | - |
| 1777480686 | 15.56° C | 93% | 996.4 hPa | 0 mm | - | - | - |
* Rain latest hour (hover to see other rain measurements)
** Current wind speed in m/s (hover to see current wind gust speed)